Nathaniel B. Palmer — WBP3210 — position and weather

sailwx.info

Track history (hours):
 
Tides and Currents Weather Stations Pressure Air Temp Water Temp Dewpoint Dewpoint Depression Visibility Wind Speed Wind Dir Waves Ship Positions

Oceanographic research ship Nathaniel B. Palmer (USA)

Contact: Ethan Norris, ethan.norris.contractor@usap.gov

Detailed information on ship capabilities available from University of Delaware's Ocean Information Center and ARCUS's ALIAS (Arctic Logistics Information and Support) project.

Owner: OFFSHORE SERVICE VESSELS, Cut Off, LA. More information available from US FCC via Universal Licensing System and Coast Guard Vessel Documentation Center.

Last reported at 2019-Feb-16 17:00 UTC. Time now 2019-Feb-16 18:03 UTC.
Position S 70°12' W 106°42'.

Type: Other ship. MMSI: 366610000.

Wind from 290 at 12 knots

Barometer 978.0 mb
Air temperature -4.4 ° C
Water temperature -1.7 ° C

Date/timePositionNaut miles runAvg speedWind from/ knotsBaromVisibWave heightAir tempDewpointWater temp
2019-Feb-16 17:00S 70°12' W 106°42'1312.7 290 / 12978.0 -4.4 -1.7
2019-Feb-16 16:00S 70°24' W 106°54'9 8.5 290 / 12977.7 -4.6 -1.7
2019-Feb-16 15:00S 70°30' W 107°12'6 6.0 290 / 14977.4 -4.3 -1.7
2019-Feb-16 14:00S 70°36' W 107°12'6 6.0 280 / 16977.2 -4.4 -1.7
2019-Feb-16 13:00S 70°42' W 107°12'6 6.3 270 / 17976.9 -4.2 -1.7
2019-Feb-16 12:00S 70°48' W 107°06'6 6.3 260 / 17976.6 -4.0 -1.7
2019-Feb-16 11:00S 70°54' W 107°00'6 6.3 250 / 16976.3 -4.0 -1.7
2019-Feb-16 10:00S 71°00' W 106°54'7 7.2 250 / 15975.9 -4.0 -1.7
2019-Feb-16 09:00S 71°06' W 107°06'6 6.3 240 / 16975.9 -3.9 -1.7
2019-Feb-16 08:00S 71°12' W 107°12'1212.2 230 / 15975.7 -3.5 -1.7
2019-Feb-16 07:00S 71°24' W 107°18'6 6.3 230 / 14975.7 -3.3 -1.7
2019-Feb-16 06:00S 71°30' W 107°12'18 6.0 230 / 12975.6 -3.1 -1.7
2019-Feb-16 03:00S 71°48' W 107°12'6 6.0 180 / 11975.8 -2.8 -1.7
2019-Feb-16 02:00S 71°54' W 107°12'6 6.3 170 / 9975.9 -3.1 -1.7
2019-Feb-16 01:00S 72°00' W 107°06'1212.1 160 / 8976.1 -3.3 -1.4
2019-Feb-16 00:00S 72°12' W 107°00'1212.1 160 / 7976.2 -3.2 -1.5
2019-Feb-15 23:00S 72°24' W 106°54'1212.1 140 / 6976.2 -3.4 -1.5
2019-Feb-15 22:00S 72°36' W 106°48'1312.5 140 / 9976.3 -3.5 -1.5
2019-Feb-15 21:00S 72°48' W 106°36'1212.1 130 / 9976.5 -4.0 -1.2
2019-Feb-15 20:00S 73°00' W 106°30'1212.5 120 / 12976.6 -3.9 -0.7
2019-Feb-15 19:00S 73°12' W 106°18'1212.1 130 / 10976.8 -3.5 -0.9
2019-Feb-15 18:00S 73°24' W 106°12'1212.5 120 / 10977.1 -3.4 -0.9
2019-Feb-15 17:00S 73°36' W 106°00'1212.1 080 / 7977.1 -3.5 -0.9
2019-Feb-15 16:00S 73°48' W 105°54'1212.1 090 / 9977.2 -4.5 -0.9
2019-Feb-15 15:00S 74°00' W 105°48'6 6.0 120 / 17977.6 -5.1 -0.9
2019-Feb-15 14:00S 74°06' W 105°48'7 6.8 120 / 25977.8 -5.3 -0.9
2019-Feb-15 13:00S 74°00' W 106°00'1313.0 130 / 23978.0 -5.3 -0.9
2019-Feb-15 12:00S 73°48' W 106°18'3 3.3 120 / 20978.0 -5.0 -0.9
2019-Feb-15 11:00S 73°48' W 106°30'0 0.0 130 / 13978.0 -4.5 -0.8
2019-Feb-15 10:00S 73°48' W 106°30'0 0.0 120 / 13978.0 -4.4 -0.7
2019-Feb-15 09:00S 73°48' W 106°30'0 0.0 120 / 14978.0 -4.2 -0.7
2019-Feb-15 08:00S 73°48' W 106°30'6 6.0 110 / 13977.9 -4.3 -0.7
2019-Feb-15 07:00S 73°42' W 106°30'5 5.1 130 / 15977.8 -4.3 -0.7
2019-Feb-15 06:00S 73°42' W 106°12'3 3.4 130 / 11977.7 -4.4 -0.8
2019-Feb-15 05:00S 73°42' W 106°24'6 6.2 130 / 15977.7 -4.4 -0.8
2019-Feb-15 04:00S 73°48' W 106°18'1010.0 130 / 18978.1 -3.7 -0.9
2019-Feb-15 03:00S 73°48' W 105°42'2 1.7 120 / 17978.0 -4.3 -0.8
2019-Feb-15 02:00S 73°48' W 105°36'7 6.7 130 / 19978.1 -4.3 -0.7
2019-Feb-15 01:00S 73°48' W 106°00'8 8.4 140 / 20978.6 -4.6 -0.8
2019-Feb-15 00:00S 73°48' W 106°30'0 0.0 140 / 21978.9 -4.8 -0.6
2019-Feb-14 23:00S 73°48' W 106°30'0 0.0 140 / 21978.9 -4.6 -0.6
2019-Feb-14 22:00S 73°48' W 106°30'0 0.0 130 / 19978.6 -4.8 -0.6
2019-Feb-14 21:00S 73°48' W 106°30'0 0.0 130 / 19978.3 -4.9 -0.7
2019-Feb-14 20:00S 73°48' W 106°30'0 0.0 130 / 20978.3 -5.2 -0.7
2019-Feb-14 19:00S 73°48' W 106°30'7 6.9 140 / 21978.2 -5.4 -0.7
2019-Feb-14 18:00S 73°42' W 106°18'1010.1 130 / 24977.6 -4.7 -0.8
2019-Feb-14 17:00S 73°42' W 105°42'3 3.4 130 / 23976.9 -5.5 -0.8
2019-Feb-14 16:00S 73°42' W 105°30'5 5.1 130 / 22976.6 -6.1 -0.7
2019-Feb-14 15:00S 73°42' W 105°12'8 8.4 120 / 16976.0 -6.1 -0.8
2019-Feb-14 14:00S 73°42' W 104°42'7 6.9 130 / 18975.4 -7.3 -0.8
2019-Feb-14 13:00S 73°36' W 104°30'8 8.5 140 / 21974.6 -7.5 -0.7
2019-Feb-14 12:00S 73°36' W 104°00'1211.8 130 / 17974.0 -7.9 -0.9
2019-Feb-14 11:00S 73°30' W 103°24'3 3.4 130 / 16973.6 -8.8 -0.6
2019-Feb-14 10:00S 73°30' W 103°12'0 0.0 150 / 20973.3 -9.8 -0.5
2019-Feb-14 09:00S 73°30' W 103°12'0 0.0 150 / 30973.9 -10.3 -0.5
2019-Feb-14 08:00S 73°30' W 103°12'2 1.7 140 / 28974.7 -10.5 -0.5
2019-Feb-14 07:00S 73°30' W 103°06'0 0.0 150 / 30975.2 -10.6 -0.5
2019-Feb-14 06:00S 73°30' W 103°06'0 0.0 150 / 31975.6 -10.6 -0.5
2019-Feb-14 05:00S 73°30' W 103°06'2 1.7 150 / 26976.1 -10.0 -0.4
2019-Feb-14 04:00S 73°30' W 103°12'2 1.7 140 / 28976.2 -9.4 -0.4
2019-Feb-14 03:00S 73°30' W 103°06'6 3.1 140 / 26976.1 -8.9 -0.4
2019-Feb-14 01:00S 73°36' W 103°00'0 0.0 150 / 18976.3 -7.8 -0.3
2019-Feb-14 00:00S 73°36' W 103°00'0 0.0 140 / 21976.3 -7.6 -0.3
2019-Feb-13 23:00S 73°36' W 103°00'0 0.0 150 / 24976.4 -7.9 -0.3
2019-Feb-13 22:00S 73°36' W 103°00'0 0.0 150 / 22976.4 -8.3 -0.3
2019-Feb-13 21:00S 73°36' W 103°00'0 0.0 150 / 21976.1 -8.9 -0.3
2019-Feb-13 20:00S 73°36' W 103°00'0 0.0 150 / 22976.0 -9.5 -0.3
2019-Feb-13 19:00S 73°36' W 103°00'0 0.0 150 / 22976.1 -10.1 -0.3
2019-Feb-13 18:00S 73°36' W 103°00'0 0.0 160 / 19976.1 -10.3 -0.3
2019-Feb-13 17:00S 73°36' W 103°00'0 0.0 160 / 15976.2 -10.5 -0.3
2019-Feb-13 16:00S 73°36' W 103°00'0 0.0 130 / 15976.1 -9.9 -0.4
2019-Feb-13 15:00S 73°36' W 103°00'6 6.2 100 / 22975.7 -9.8 -0.4
2019-Feb-13 14:00S 73°30' W 103°06'2 1.7 130 / 21975.8 -10.4 -0.4
2019-Feb-13 13:00S 73°30' W 103°12'0 0.0 130 / 20976.2 -10.4 -0.5
2019-Feb-13 12:00S 73°30' W 103°12'2 1.7 120 / 25975.7 -9.4 -0.5
2019-Feb-13 11:00S 73°30' W 103°18'2 1.7 120 / 20976.2 -8.4 -0.5
2019-Feb-13 10:00S 73°30' W 103°24'0 0.0 140 / 17977.1 -8.7 -0.4
2019-Feb-13 09:00S 73°30' W 103°24'0 0.0 100 / 22977.2 -7.9 -0.5
2019-Feb-13 08:00S 73°30' W 103°24'6 6.2 090 / 28977.0 -7.8 -0.5
2019-Feb-13 07:00S 73°36' W 103°18'0 0.0 080 / 27977.1 -6.8 -0.3
2019-Feb-13 06:00S 73°36' W 103°18'2 1.7 080 / 25977.5 -7.3 -0.2
2019-Feb-13 05:00S 73°36' W 103°12'0 0.0 090 / 21977.7 -7.3 -0.2
2019-Feb-13 04:00S 73°36' W 103°12'0 0.0 090 / 13977.9 -6.3 -0.2
2019-Feb-13 03:00S 73°36' W 103°12'0 0.0 120 / 9978.1 -6.1 -0.1
2019-Feb-13 02:00S 73°36' W 103°12'0 0.0 090 / 11978.4 -6.4 -0.2
2019-Feb-13 01:00S 73°36' W 103°12'0 0.0 080 / 17978.4 -6.7 -0.2
2019-Feb-13 00:00S 73°36' W 103°12'0 0.0 080 / 18978.6 -6.9 -0.2
2019-Feb-12 22:00S 73°36' W 103°12'0 0.0 070 / 20978.8 -7.0 -0.2
2019-Feb-12 21:00S 73°36' W 103°12'0 0.0 070 / 21978.9 -7.1 -0.2
2019-Feb-12 20:00S 73°36' W 103°12'0 0.0 070 / 19978.8 -6.7 -0.2
2019-Feb-12 19:00S 73°36' W 103°12'0 0.0 090 / 14978.8 -6.2 -0.2
2019-Feb-12 18:00S 73°36' W 103°12'0 0.0 060 / 19978.9 -6.8 -0.3
2019-Feb-12 17:00S 73°36' W 103°12'0 0.0 060 / 16978.9 -6.6 -0.3
2019-Feb-12 16:00S 73°36' W 103°12'0 0.0 050 / 13978.9 -5.7 -0.3
2019-Feb-12 15:00S 73°36' W 103°12'2 1.7 080 / 12978.9 -5.1 -0.3
2019-Feb-12 14:00S 73°36' W 103°18'0 0.0 070 / 20978.7 -5.4 -0.3
2019-Feb-12 13:00S 73°36' W 103°18'0 0.0 070 / 25978.4 -5.9 -0.2
2019-Feb-12 12:00S 73°36' W 103°18'8 7.9 070 / 31977.4 -5.6 -0.2
2019-Feb-12 11:00S 73°30' W 103°00'8 7.9 100 / 33977.7 -5.0 -0.2
2019-Feb-12 10:00S 73°24' W 102°42'8 7.9 110 / 29977.9 -5.6 -0.3
2019-Feb-12 09:00S 73°30' W 102°24'7 6.8 100 / 35976.8 -5.7 -0.5
2019-Feb-12 08:00S 73°30' W 102°00'3 3.4 110 / 29977.5 -5.8 -0.2
2019-Feb-12 07:00S 73°30' W 101°48'2 1.7 110 / 30977.8 -4.7 -0.3
2019-Feb-12 06:00S 73°30' W 101°42'5 5.1 100 / 31977.2 -5.9 -0.5
2019-Feb-12 05:00S 73°30' W 102°00'5 5.1 110 / 33976.4 -5.2 -0.2
2019-Feb-12 04:00S 73°30' W 101°42'3 3.4 100 / 34975.2 -4.6 -0.7
2019-Feb-12 03:00S 73°30' W 101°54'5 5.1 100 / 32975.0 -4.9 -0.2
2019-Feb-12 02:00S 73°30' W 102°12'2 1.7 100 / 36974.8 -4.4 -0.3
2019-Feb-12 01:00S 73°30' W 102°18'5 5.1 100 / 39973.7 -4.0 -0.2
2019-Feb-12 00:00S 73°30' W 102°00'3 3.4 100 / 40973.2 -3.7 -0.2
2019-Feb-11 23:00S 73°30' W 101°48'8 7.9 090 / 43972.4 -4.2 -0.2
2019-Feb-11 22:00S 73°24' W 102°06'5 5.1 090 / 39973.0 -4.1 -0.1
2019-Feb-11 21:00S 73°24' W 102°24'8 7.9 100 / 40973.1 -4.1 -0.0
2019-Feb-11 20:00S 73°30' W 102°42'3 3.4 100 / 42973.0 -4.1 -0.1
2019-Feb-11 19:00S 73°30' W 102°54'5 5.1 090 / 44972.5 -4.4 -0.2
2019-Feb-11 18:00S 73°30' W 103°12'6 6.2 080 / 49971.4 -4.7 -0.1
2019-Feb-11 17:00S 73°36' W 103°18'0 0.0 080 / 36972.3 -4.5 0.2
2019-Feb-11 16:00S 73°36' W 103°18'2 1.7 120 / 25974.1 -4.2 0.2
2019-Feb-11 15:00S 73°36' W 103°12'0 0.0 100 / 24974.7 -4.0 0.3
2019-Feb-11 14:00S 73°36' W 103°12'0 0.0 090 / 19975.5 -4.5 0.3
2019-Feb-11 13:00S 73°36' W 103°12'0 0.0 090 / 15976.1 -3.6 0.3
2019-Feb-11 12:00S 73°36' W 103°12'1212.0 080 / 15976.2 -2.3 0.3
2019-Feb-11 11:00S 73°48' W 103°12'2 1.7 110 / 18976.4 -1.8 0.3
2019-Feb-11 10:00S 73°48' W 103°06'6 6.0 120 / 18977.7 -2.5 0.2
2019-Feb-11 09:00S 73°54' W 103°06'2 1.7 120 / 20979.1 -2.8 0.2
2019-Feb-11 08:00S 73°54' W 103°12'0 0.0 120 / 21980.3 -2.4 0.1
2019-Feb-11 07:00S 73°54' W 103°12'0 0.0 120 / 20981.4 -2.5 0.2
2019-Feb-11 06:00S 73°54' W 103°12'3 3.3 120 / 22982.3 -2.9 0.1
2019-Feb-11 05:00S 73°54' W 103°00'2 1.7 110 / 22983.5 -2.5 0.3
2019-Feb-11 04:00S 73°54' W 102°54'6 6.2 140 / 14984.7 -2.6 0.4
2019-Feb-11 03:00S 73°48' W 103°00'2 1.7 140 / 16985.9 -2.1 0.5
2019-Feb-11 02:00S 73°48' W 102°54'7 6.9 120 / 13987.9 -1.8 0.4
2019-Feb-11 01:00S 73°54' W 103°06'2 1.7 140 / 11989.9 -4.5 -0.0
2019-Feb-11 00:00S 73°54' W 103°00'2 1.7 130 / 12991.0 -4.0 0.2
2019-Feb-10 23:00S 73°54' W 102°54'6 6.2 140 / 14992.2 -3.6 0.4
2019-Feb-10 22:00S 73°48' W 103°00'0 0.0 120 / 8993.6 -1.1 0.5
2019-Feb-10 21:00S 73°48' W 103°00'0 0.0 090 / 3994.7 -0.8 0.5
2019-Feb-10 20:00S 73°48' W 103°00'0 0.0 130 / 13995.6 -2.1 0.5
2019-Feb-10 19:00S 73°48' W 103°00'3 3.3 140 / 12996.6 -2.6 0.5
2019-Feb-10 18:00S 73°48' W 103°12'1212.1 110 / 7997.6 -2.6 0.4
2019-Feb-10 17:00S 73°36' W 103°18'7 6.9 060 / 12998.5 -3.1 0.5
2019-Feb-10 16:00S 73°30' W 103°30'1413.8 080 / 15999.2 -3.0 0.5
2019-Feb-10 15:00S 73°18' W 103°54'7 6.9 080 / 5999.8 -1.9 0.6
2019-Feb-10 14:00S 73°12' W 104°06'0 0.0 070 / 31000.6 -1.7 0.3
2019-Feb-10 13:00S 73°12' W 104°06'6 6.0 030 / 21001.3 -2.0 0.3
2019-Feb-10 12:00S 73°18' W 104°06'0 0.0 310 / 41002.0 -2.1 0.4
2019-Feb-10 11:00S 73°18' W 104°06'7 6.9 280 / 51002.5 -2.2 0.5
2019-Feb-10 10:00S 73°12' W 104°18'0 0.0 280 / 61003.0 -2.3 -0.0
2019-Feb-10 09:00S 73°12' W 104°18'2 1.7 270 / 71003.5 -2.2 -0.0
2019-Feb-10 08:00S 73°12' W 104°12'2 1.7 260 / 91003.7 -2.1 0.1
2019-Feb-10 07:00S 73°12' W 104°18'0 0.0 260 / 91003.8 -2.0 0.1
2019-Feb-10 06:00S 73°12' W 104°18'2 1.7 250 / 101004.0 -2.0 0.1
2019-Feb-10 05:00S 73°12' W 104°12'1212.1 250 / 111004.2 -1.8 0.2
2019-Feb-10 04:00S 73°00' W 104°18'6 6.0 240 / 71004.3 -1.6 0.2
2019-Feb-10 03:00S 72°54' W 104°18'1212.1 250 / 91004.4 -1.5 -0.0
2019-Feb-10 02:00S 72°42' W 104°12'7 7.0 260 / 111004.6 -1.4 -0.5
2019-Feb-10 01:00S 72°36' W 104°00'1312.5 250 / 111004.6 -1.6 -0.6
2019-Feb-10 00:00S 72°24' W 103°48'6 6.3 240 / 131004.7 -1.6 -0.6
2019-Feb-09 23:00S 72°18' W 103°42'0 0.0 250 / 151004.9 -1.3 -0.9
2019-Feb-09 22:00S 72°18' W 103°42'0 0.0 260 / 151004.6 -1.2 -1.0
2019-Feb-09 21:00S 72°18' W 103°42'0 0.0 260 / 151004.4 -1.4 -0.9
2019-Feb-09 20:00S 72°18' W 103°42'0 0.0 270 / 151004.2 -1.7 -0.8
2019-Feb-09 19:00S 72°18' W 103°42'0 0.0 270 / 151003.8 -1.8 -0.8
2019-Feb-09 18:00S 72°18' W 103°42'6 6.0 260 / 131003.4 -1.8 -0.8
2019-Feb-09 17:00S 72°24' W 103°42'6 6.3 260 / 141003.0 -1.7 -0.8
2019-Feb-09 16:00S 72°18' W 103°48'6 6.3 260 / 131002.7 -1.8 -0.9
2019-Feb-09 15:00S 72°12' W 103°42'1212.0 270 / 111002.8 -1.9 -1.0
2019-Feb-09 14:00S 72°00' W 103°42'6 6.0 270 / 91002.8 -2.0 -1.1
2019-Feb-09 13:00S 71°54' W 103°42'6 6.3 260 / 81002.7 -2.3 -1.2
2019-Feb-09 12:00S 71°48' W 103°48'6 6.3 250 / 71002.4 -2.7 -1.4
2019-Feb-09 11:00S 71°42' W 103°54'6 6.0 220 / 51001.8 -3.1 -1.6
2019-Feb-09 10:00S 71°36' W 103°54'6 6.3 200 / 71001.3 -3.8 -1.7
2019-Feb-09 09:00S 71°30' W 103°48'7 7.1 170 / 91000.8 -4.0 -1.5
2019-Feb-09 08:00S 71°24' W 103°36'6 6.3 170 / 91000.1 -4.8 -1.6
2019-Feb-09 07:00S 71°18' W 103°30'6 6.3 150 / 9999.5 -4.7 -1.6
2019-Feb-09 06:00S 71°12' W 103°24'6 6.0 160 / 9998.8 -4.3 -1.7
2019-Feb-09 05:00S 71°06' W 103°24'6 6.0 160 / 7998.2 -4.3 -1.7
2019-Feb-09 04:00S 71°00' W 103°24'0 0.0 170 / 9997.7 -3.9 -1.8
2019-Feb-09 03:00S 71°00' W 103°24'0 0.0 170 / 8997.1 -3.5 -1.7
2019-Feb-09 02:00S 71°00' W 103°24'2 2.0 180 / 8996.2 -2.7 -1.8
2019-Feb-09 01:00S 71°00' W 103°18'6 6.3 180 / 8995.4 -1.7 -1.8
2019-Feb-09 00:00S 70°54' W 103°12'2 2.0 160 / 8994.6 -1.1 -1.7
2019-Feb-08 23:00S 70°54' W 103°06'4 3.9 150 / 8993.9 -1.2 -1.8
2019-Feb-08 22:00S 70°54' W 102°54'2 2.0 150 / 11992.9 -1.1 -1.7
2019-Feb-08 21:00S 70°54' W 102°48'7 7.2 150 / 11992.0 -1.5 -1.7
2019-Feb-08 20:00S 70°48' W 102°36'4 3.9 150 / 12991.3 -2.1 -1.7
2019-Feb-08 19:00S 70°48' W 102°24'6 6.3 160 / 15990.3 -2.6 -1.7
2019-Feb-08 18:00S 70°42' W 102°18'2 2.0 150 / 12989.3 -3.0 -1.7
2019-Feb-08 17:00S 70°42' W 102°12'6 6.3 150 / 12988.4 -3.6 -1.7
2019-Feb-08 16:00S 70°36' W 102°06'6 6.0 160 / 11987.5 -4.8 -1.7
2019-Feb-08 15:00S 70°30' W 102°06'6 6.3 160 / 9986.7 -5.1 -1.7
2019-Feb-08 14:00S 70°24' W 102°00'2 2.0 130 / 11985.9 -4.5 -1.6
2019-Feb-08 13:00S 70°24' W 101°54'0 0.0 130 / 10985.2 -4.6 -1.4
2019-Feb-08 12:00S 70°24' W 101°54'0 0.0 130 / 8984.5 -4.5 -1.4
2019-Feb-08 11:00S 70°24' W 101°54'0 0.0 110 / 7984.0 -3.9 -1.4
2019-Feb-08 10:00S 70°24' W 101°54'0 0.0 120 / 7983.3 -2.4 -1.5
2019-Feb-08 09:00S 70°24' W 101°54'6 6.3 130 / 7982.7 -2.0 -1.6
2019-Feb-08 08:00S 70°18' W 101°48'4 4.0 120 / 6982.2 -2.2 -1.6
2019-Feb-08 07:00S 70°18' W 101°36'7 7.2 110 / 7981.6 -2.6 -1.7
2019-Feb-08 06:00S 70°12' W 101°24'7 7.3 110 / 7981.0 -2.4 -1.6
2019-Feb-08 05:00S 70°06' W 101°12'7 7.3 100 / 7980.7 -2.2 -1.5
2019-Feb-08 04:00S 70°00' W 101°00'1514.6 080 / 8980.3 -1.2 -1.4
2019-Feb-08 03:00S 69°48' W 100°36'9 8.6 080 / 9980.0 -0.0 -0.8
2019-Feb-08 02:00S 69°42' W 100°18'9 8.7 080 / 9979.8 0.8 -0.5
2019-Feb-08 01:00S 69°36' W 100°00'1413.6 080 / 9979.8 0.9 -0.5
2019-Feb-08 00:00S 69°24' W 099°42'17 8.7 060 / 11979.8 0.8 -0.2
2019-Feb-07 22:00S 69°12' W 099°06'1413.6 060 / 12980.0 1.0 -0.0
2019-Feb-07 21:00S 69°00' W 098°48'9 8.8 050 / 11980.4 0.4 -0.0
2019-Feb-07 20:00S 68°54' W 098°30'1413.7 050 / 10980.7 0.9 -0.0
2019-Feb-07 19:00S 68°42' W 098°12'9 8.9 040 / 11980.7 0.3 0.2
2019-Feb-07 18:00S 68°36' W 097°54'9 8.9 050 / 12981.0 0.9 0.2
2019-Feb-07 17:00S 68°30' W 097°36'1413.7 060 / 12981.0 -0.0 0.2
2019-Feb-07 16:00S 68°18' W 097°18'9 9.0 060 / 9981.6 0.3 0.3
2019-Feb-07 15:00S 68°12' W 097°00'9 9.0 060 / 6982.2 -0.1 0.4
2019-Feb-07 14:00S 68°06' W 096°42'1312.8 060 / 4982.7 -0.7 0.6
2019-Feb-07 13:00S 67°54' W 096°30'9 9.1 060 / 2982.8 -1.1 0.3
2019-Feb-07 12:00S 67°48' W 096°12'1312.8 350 / 2982.9 -1.3 0.3
2019-Feb-07 11:00S 67°36' W 096°00'8 7.5 350 / 2983.0 -1.3 0.3
2019-Feb-07 10:00S 67°30' W 095°48'8 7.6 020 / 1983.0 -1.3 0.4
2019-Feb-07 09:00S 67°24' W 095°36'1413.9 180 / 2983.3 -0.9 1.0
2019-Feb-07 08:00S 67°12' W 095°18'8 7.6 210 / 1983.7 -0.7 0.7
2019-Feb-07 07:00S 67°06' W 095°06'1312.9 040 / 2983.8 -0.4 0.7
2019-Feb-07 06:00S 66°54' W 094°54'9 9.3 040 / 6983.6 -0.1 0.8
2019-Feb-07 05:00S 66°48' W 094°36'1312.9 060 / 8983.6 -0.1 0.8
2019-Feb-07 04:00S 66°36' W 094°24'8 7.7 060 / 5983.8 -0.0 0.9
2019-Feb-07 03:00S 66°30' W 094°12'1312.9 010 / 6984.1 -0.0 0.8
2019-Feb-07 02:00S 66°18' W 094°00'9 9.4 984.3 0.1 0.9
2019-Feb-07 01:00S 66°12' W 093°42'1312.9 350 / 8984.6 0.5 1.3
2019-Feb-07 00:00S 66°00' W 093°30'8 7.7 340 / 9984.9 0.8 1.4
2019-Feb-06 23:00S 65°54' W 093°18'1414.1 360 / 6985.3 0.8 1.5
2019-Feb-06 22:00S 65°42' W 093°00'6 6.5 340 / 5985.4 0.2 1.5
2019-Feb-06 21:00S 65°36' W 092°54'1313.0 320 / 7985.5 0.3 1.5
2019-Feb-06 20:00S 65°48' W 093°06'6 6.5 320 / 8985.4 -0.0 1.4
2019-Feb-06 19:00S 65°42' W 093°00'1414.1 310 / 6985.5 -0.5 1.4
2019-Feb-06 18:00S 65°30' W 092°42'8 7.8 290 / 7985.5 -0.6 1.5
2019-Feb-06 17:00S 65°24' W 092°30'   290 / 9985.5 -0.8 1.4
Track history (hours):
 
Tides and Currents Weather Stations Pressure Air Temp Water Temp Dewpoint Dewpoint Depression Visibility Wind Speed Wind Dir Waves Ship Positions

Oceanographic research ship Nathaniel B. Palmer (USA)

Contact: Ethan Norris, ethan.norris.contractor@usap.gov

Detailed information on ship capabilities available from University of Delaware's Ocean Information Center and ARCUS's ALIAS (Arctic Logistics Information and Support) project.

Owner: OFFSHORE SERVICE VESSELS, Cut Off, LA. More information available from US FCC via Universal Licensing System and Coast Guard Vessel Documentation Center.

Last reported at 2019-Feb-16 17:00 UTC. Time now 2019-Feb-16 18:03 UTC.
Position S 70°12' W 106°42'.

Type: Other ship. MMSI: 366610000.

Wind from 290 at 12 knots

Barometer 978.0 mb
Air temperature -4.4 ° C
Water temperature -1.7 ° C

Date/timePositionNaut miles runAvg speedWind from/ knotsBaromVisibWave heightAir tempDewpointWater temp
2019-Feb-16 17:00S 70°12' W 106°42'1312.7 290 / 12978.0 -4.4 -1.7
2019-Feb-16 16:00S 70°24' W 106°54'9 8.5 290 / 12977.7 -4.6 -1.7
2019-Feb-16 15:00S 70°30' W 107°12'6 6.0 290 / 14977.4 -4.3 -1.7
2019-Feb-16 14:00S 70°36' W 107°12'6 6.0 280 / 16977.2 -4.4 -1.7
2019-Feb-16 13:00S 70°42' W 107°12'6 6.3 270 / 17976.9 -4.2 -1.7
2019-Feb-16 12:00S 70°48' W 107°06'6 6.3 260 / 17976.6 -4.0 -1.7
2019-Feb-16 11:00S 70°54' W 107°00'6 6.3 250 / 16976.3 -4.0 -1.7
2019-Feb-16 10:00S 71°00' W 106°54'7 7.2 250 / 15975.9 -4.0 -1.7
2019-Feb-16 09:00S 71°06' W 107°06'6 6.3 240 / 16975.9 -3.9 -1.7
2019-Feb-16 08:00S 71°12' W 107°12'1212.2 230 / 15975.7 -3.5 -1.7
2019-Feb-16 07:00S 71°24' W 107°18'6 6.3 230 / 14975.7 -3.3 -1.7
2019-Feb-16 06:00S 71°30' W 107°12'18 6.0 230 / 12975.6 -3.1 -1.7
2019-Feb-16 03:00S 71°48' W 107°12'6 6.0 180 / 11975.8 -2.8 -1.7
2019-Feb-16 02:00S 71°54' W 107°12'6 6.3 170 / 9975.9 -3.1 -1.7
2019-Feb-16 01:00S 72°00' W 107°06'1212.1 160 / 8976.1 -3.3 -1.4
2019-Feb-16 00:00S 72°12' W 107°00'1212.1 160 / 7976.2 -3.2 -1.5
2019-Feb-15 23:00S 72°24' W 106°54'1212.1 140 / 6976.2 -3.4 -1.5
2019-Feb-15 22:00S 72°36' W 106°48'1312.5 140 / 9976.3 -3.5 -1.5
2019-Feb-15 21:00S 72°48' W 106°36'1212.1 130 / 9976.5 -4.0 -1.2
2019-Feb-15 20:00S 73°00' W 106°30'1212.5 120 / 12976.6 -3.9 -0.7
2019-Feb-15 19:00S 73°12' W 106°18'1212.1 130 / 10976.8 -3.5 -0.9
2019-Feb-15 18:00S 73°24' W 106°12'1212.5 120 / 10977.1 -3.4 -0.9
2019-Feb-15 17:00S 73°36' W 106°00'1212.1 080 / 7977.1 -3.5 -0.9
2019-Feb-15 16:00S 73°48' W 105°54'1212.1 090 / 9977.2 -4.5 -0.9
2019-Feb-15 15:00S 74°00' W 105°48'6 6.0 120 / 17977.6 -5.1 -0.9
2019-Feb-15 14:00S 74°06' W 105°48'7 6.8 120 / 25977.8 -5.3 -0.9
2019-Feb-15 13:00S 74°00' W 106°00'1313.0 130 / 23978.0 -5.3 -0.9
2019-Feb-15 12:00S 73°48' W 106°18'3 3.3 120 / 20978.0 -5.0 -0.9
2019-Feb-15 11:00S 73°48' W 106°30'0 0.0 130 / 13978.0 -4.5 -0.8
2019-Feb-15 10:00S 73°48' W 106°30'0 0.0 120 / 13978.0 -4.4 -0.7
2019-Feb-15 09:00S 73°48' W 106°30'0 0.0 120 / 14978.0 -4.2 -0.7
2019-Feb-15 08:00S 73°48' W 106°30'6 6.0 110 / 13977.9 -4.3 -0.7
2019-Feb-15 07:00S 73°42' W 106°30'5 5.1 130 / 15977.8 -4.3 -0.7
2019-Feb-15 06:00S 73°42' W 106°12'3 3.4 130 / 11977.7 -4.4 -0.8
2019-Feb-15 05:00S 73°42' W 106°24'6 6.2 130 / 15977.7 -4.4 -0.8
2019-Feb-15 04:00S 73°48' W 106°18'1010.0 130 / 18978.1 -3.7 -0.9
2019-Feb-15 03:00S 73°48' W 105°42'2 1.7 120 / 17978.0 -4.3 -0.8
2019-Feb-15 02:00S 73°48' W 105°36'7 6.7 130 / 19978.1 -4.3 -0.7
2019-Feb-15 01:00S 73°48' W 106°00'8 8.4 140 / 20978.6 -4.6 -0.8
2019-Feb-15 00:00S 73°48' W 106°30'0 0.0 140 / 21978.9 -4.8 -0.6
2019-Feb-14 23:00S 73°48' W 106°30'0 0.0 140 / 21978.9 -4.6 -0.6
2019-Feb-14 22:00S 73°48' W 106°30'0 0.0 130 / 19978.6 -4.8 -0.6
2019-Feb-14 21:00S 73°48' W 106°30'0 0.0 130 / 19978.3 -4.9 -0.7
2019-Feb-14 20:00S 73°48' W 106°30'0 0.0 130 / 20978.3 -5.2 -0.7
2019-Feb-14 19:00S 73°48' W 106°30'7 6.9 140 / 21978.2 -5.4 -0.7
2019-Feb-14 18:00S 73°42' W 106°18'1010.1 130 / 24977.6 -4.7 -0.8
2019-Feb-14 17:00S 73°42' W 105°42'3 3.4 130 / 23976.9 -5.5 -0.8
2019-Feb-14 16:00S 73°42' W 105°30'5 5.1 130 / 22976.6 -6.1 -0.7
2019-Feb-14 15:00S 73°42' W 105°12'8 8.4 120 / 16976.0 -6.1 -0.8
2019-Feb-14 14:00S 73°42' W 104°42'7 6.9 130 / 18975.4 -7.3 -0.8
2019-Feb-14 13:00S 73°36' W 104°30'8 8.5 140 / 21974.6 -7.5 -0.7
2019-Feb-14 12:00S 73°36' W 104°00'1211.8 130 / 17974.0 -7.9 -0.9
2019-Feb-14 11:00S 73°30' W 103°24'3 3.4 130 / 16973.6 -8.8 -0.6
2019-Feb-14 10:00S 73°30' W 103°12'0 0.0 150 / 20973.3 -9.8 -0.5
2019-Feb-14 09:00S 73°30' W 103°12'0 0.0 150 / 30973.9 -10.3 -0.5
2019-Feb-14 08:00S 73°30' W 103°12'2 1.7 140 / 28974.7 -10.5 -0.5
2019-Feb-14 07:00S 73°30' W 103°06'0 0.0 150 / 30975.2 -10.6 -0.5
2019-Feb-14 06:00S 73°30' W 103°06'0 0.0 150 / 31975.6 -10.6 -0.5
2019-Feb-14 05:00S 73°30' W 103°06'2 1.7 150 / 26976.1 -10.0 -0.4
2019-Feb-14 04:00S 73°30' W 103°12'2 1.7 140 / 28976.2 -9.4 -0.4
2019-Feb-14 03:00S 73°30' W 103°06'6 3.1 140 / 26976.1 -8.9 -0.4
2019-Feb-14 01:00S 73°36' W 103°00'0 0.0 150 / 18976.3 -7.8 -0.3
2019-Feb-14 00:00S 73°36' W 103°00'0 0.0 140 / 21976.3 -7.6 -0.3
2019-Feb-13 23:00S 73°36' W 103°00'0 0.0 150 / 24976.4 -7.9 -0.3
2019-Feb-13 22:00S 73°36' W 103°00'0 0.0 150 / 22976.4 -8.3 -0.3
2019-Feb-13 21:00S 73°36' W 103°00'0 0.0 150 / 21976.1 -8.9 -0.3
2019-Feb-13 20:00S 73°36' W 103°00'0 0.0 150 / 22976.0 -9.5 -0.3
2019-Feb-13 19:00S 73°36' W 103°00'0 0.0 150 / 22976.1 -10.1 -0.3
2019-Feb-13 18:00S 73°36' W 103°00'0 0.0 160 / 19976.1 -10.3 -0.3
2019-Feb-13 17:00S 73°36' W 103°00'0 0.0 160 / 15976.2 -10.5 -0.3
2019-Feb-13 16:00S 73°36' W 103°00'0 0.0 130 / 15976.1 -9.9 -0.4
2019-Feb-13 15:00S 73°36' W 103°00'6 6.2 100 / 22975.7 -9.8 -0.4
2019-Feb-13 14:00S 73°30' W 103°06'2 1.7 130 / 21975.8 -10.4 -0.4
2019-Feb-13 13:00S 73°30' W 103°12'0 0.0 130 / 20976.2 -10.4 -0.5
2019-Feb-13 12:00S 73°30' W 103°12'2 1.7 120 / 25975.7 -9.4 -0.5
2019-Feb-13 11:00S 73°30' W 103°18'2 1.7 120 / 20976.2 -8.4 -0.5
2019-Feb-13 10:00S 73°30' W 103°24'0 0.0 140 / 17977.1 -8.7 -0.4
2019-Feb-13 09:00S 73°30' W 103°24'0 0.0 100 / 22977.2 -7.9 -0.5
2019-Feb-13 08:00S 73°30' W 103°24'6 6.2 090 / 28977.0 -7.8 -0.5
2019-Feb-13 07:00S 73°36' W 103°18'0 0.0 080 / 27977.1 -6.8 -0.3
2019-Feb-13 06:00S 73°36' W 103°18'2 1.7 080 / 25977.5 -7.3 -0.2
2019-Feb-13 05:00S 73°36' W 103°12'0 0.0 090 / 21977.7 -7.3 -0.2
2019-Feb-13 04:00S 73°36' W 103°12'0 0.0 090 / 13977.9 -6.3 -0.2
2019-Feb-13 03:00S 73°36' W 103°12'0 0.0 120 / 9978.1 -6.1 -0.1
2019-Feb-13 02:00S 73°36' W 103°12'0 0.0 090 / 11978.4 -6.4 -0.2
2019-Feb-13 01:00S 73°36' W 103°12'0 0.0 080 / 17978.4 -6.7 -0.2
2019-Feb-13 00:00S 73°36' W 103°12'0 0.0 080 / 18978.6 -6.9 -0.2
2019-Feb-12 22:00S 73°36' W 103°12'0 0.0 070 / 20978.8 -7.0 -0.2
2019-Feb-12 21:00S 73°36' W 103°12'0 0.0 070 / 21978.9 -7.1 -0.2
2019-Feb-12 20:00S 73°36' W 103°12'0 0.0 070 / 19978.8 -6.7 -0.2
2019-Feb-12 19:00S 73°36' W 103°12'0 0.0 090 / 14978.8 -6.2 -0.2
2019-Feb-12 18:00S 73°36' W 103°12'0 0.0 060 / 19978.9 -6.8 -0.3
2019-Feb-12 17:00S 73°36' W 103°12'0 0.0 060 / 16978.9 -6.6 -0.3
2019-Feb-12 16:00S 73°36' W 103°12'0 0.0 050 / 13978.9 -5.7 -0.3
2019-Feb-12 15:00S 73°36' W 103°12'2 1.7 080 / 12978.9 -5.1 -0.3
2019-Feb-12 14:00S 73°36' W 103°18'0 0.0 070 / 20978.7 -5.4 -0.3
2019-Feb-12 13:00S 73°36' W 103°18'0 0.0 070 / 25978.4 -5.9 -0.2
2019-Feb-12 12:00S 73°36' W 103°18'8 7.9 070 / 31977.4 -5.6 -0.2
2019-Feb-12 11:00S 73°30' W 103°00'8 7.9 100 / 33977.7 -5.0 -0.2
2019-Feb-12 10:00S 73°24' W 102°42'8 7.9 110 / 29977.9 -5.6 -0.3
2019-Feb-12 09:00S 73°30' W 102°24'7 6.8 100 / 35976.8 -5.7 -0.5
2019-Feb-12 08:00S 73°30' W 102°00'3 3.4 110 / 29977.5 -5.8 -0.2
2019-Feb-12 07:00S 73°30' W 101°48'2 1.7 110 / 30977.8 -4.7 -0.3
2019-Feb-12 06:00S 73°30' W 101°42'5 5.1 100 / 31977.2 -5.9 -0.5
2019-Feb-12 05:00S 73°30' W 102°00'5 5.1 110 / 33976.4 -5.2 -0.2
2019-Feb-12 04:00S 73°30' W 101°42'3 3.4 100 / 34975.2 -4.6 -0.7
2019-Feb-12 03:00S 73°30' W 101°54'5 5.1 100 / 32975.0 -4.9 -0.2
2019-Feb-12 02:00S 73°30' W 102°12'2 1.7 100 / 36974.8 -4.4 -0.3
2019-Feb-12 01:00S 73°30' W 102°18'5 5.1 100 / 39973.7 -4.0 -0.2
2019-Feb-12 00:00S 73°30' W 102°00'3 3.4 100 / 40973.2 -3.7 -0.2
2019-Feb-11 23:00S 73°30' W 101°48'8 7.9 090 / 43972.4 -4.2 -0.2
2019-Feb-11 22:00S 73°24' W 102°06'5 5.1 090 / 39973.0 -4.1 -0.1
2019-Feb-11 21:00S 73°24' W 102°24'8 7.9 100 / 40973.1 -4.1 -0.0
2019-Feb-11 20:00S 73°30' W 102°42'3 3.4 100 / 42973.0 -4.1 -0.1
2019-Feb-11 19:00S 73°30' W 102°54'5 5.1 090 / 44972.5 -4.4 -0.2
2019-Feb-11 18:00S 73°30' W 103°12'6 6.2 080 / 49971.4 -4.7 -0.1
2019-Feb-11 17:00S 73°36' W 103°18'0 0.0 080 / 36972.3 -4.5 0.2
2019-Feb-11 16:00S 73°36' W 103°18'2 1.7 120 / 25974.1 -4.2 0.2
2019-Feb-11 15:00S 73°36' W 103°12'0 0.0 100 / 24974.7 -4.0 0.3
2019-Feb-11 14:00S 73°36' W 103°12'0 0.0 090 / 19975.5 -4.5 0.3
2019-Feb-11 13:00S 73°36' W 103°12'0 0.0 090 / 15976.1 -3.6 0.3
2019-Feb-11 12:00S 73°36' W 103°12'1212.0 080 / 15976.2 -2.3 0.3
2019-Feb-11 11:00S 73°48' W 103°12'2 1.7 110 / 18976.4 -1.8 0.3
2019-Feb-11 10:00S 73°48' W 103°06'6 6.0 120 / 18977.7 -2.5 0.2
2019-Feb-11 09:00S 73°54' W 103°06'2 1.7 120 / 20979.1 -2.8 0.2
2019-Feb-11 08:00S 73°54' W 103°12'0 0.0 120 / 21980.3 -2.4 0.1
2019-Feb-11 07:00S 73°54' W 103°12'0 0.0 120 / 20981.4 -2.5 0.2
2019-Feb-11 06:00S 73°54' W 103°12'3 3.3 120 / 22982.3 -2.9 0.1
2019-Feb-11 05:00S 73°54' W 103°00'2 1.7 110 / 22983.5 -2.5 0.3
2019-Feb-11 04:00S 73°54' W 102°54'6 6.2 140 / 14984.7 -2.6 0.4
2019-Feb-11 03:00S 73°48' W 103°00'2 1.7 140 / 16985.9 -2.1 0.5
2019-Feb-11 02:00S 73°48' W 102°54'7 6.9 120 / 13987.9 -1.8 0.4
2019-Feb-11 01:00S 73°54' W 103°06'2 1.7 140 / 11989.9 -4.5 -0.0
2019-Feb-11 00:00S 73°54' W 103°00'2 1.7 130 / 12991.0 -4.0 0.2
2019-Feb-10 23:00S 73°54' W 102°54'6 6.2 140 / 14992.2 -3.6 0.4
2019-Feb-10 22:00S 73°48' W 103°00'0 0.0 120 / 8993.6 -1.1 0.5
2019-Feb-10 21:00S 73°48' W 103°00'0 0.0 090 / 3994.7 -0.8 0.5
2019-Feb-10 20:00S 73°48' W 103°00'0 0.0 130 / 13995.6 -2.1 0.5
2019-Feb-10 19:00S 73°48' W 103°00'3 3.3 140 / 12996.6 -2.6 0.5
2019-Feb-10 18:00S 73°48' W 103°12'1212.1 110 / 7997.6 -2.6 0.4
2019-Feb-10 17:00S 73°36' W 103°18'7 6.9 060 / 12998.5 -3.1 0.5
2019-Feb-10 16:00S 73°30' W 103°30'1413.8 080 / 15999.2 -3.0 0.5
2019-Feb-10 15:00S 73°18' W 103°54'7 6.9 080 / 5999.8 -1.9 0.6
2019-Feb-10 14:00S 73°12' W 104°06'0 0.0 070 / 31000.6 -1.7 0.3
2019-Feb-10 13:00S 73°12' W 104°06'6 6.0 030 / 21001.3 -2.0 0.3
2019-Feb-10 12:00S 73°18' W 104°06'0 0.0 310 / 41002.0 -2.1 0.4
2019-Feb-10 11:00S 73°18' W 104°06'7 6.9 280 / 51002.5 -2.2 0.5
2019-Feb-10 10:00S 73°12' W 104°18'0 0.0 280 / 61003.0 -2.3 -0.0
2019-Feb-10 09:00S 73°12' W 104°18'2 1.7 270 / 71003.5 -2.2 -0.0
2019-Feb-10 08:00S 73°12' W 104°12'2 1.7 260 / 91003.7 -2.1 0.1
2019-Feb-10 07:00S 73°12' W 104°18'0 0.0 260 / 91003.8 -2.0 0.1
2019-Feb-10 06:00S 73°12' W 104°18'2 1.7 250 / 101004.0 -2.0 0.1
2019-Feb-10 05:00S 73°12' W 104°12'1212.1 250 / 111004.2 -1.8 0.2
2019-Feb-10 04:00S 73°00' W 104°18'6 6.0 240 / 71004.3 -1.6 0.2
2019-Feb-10 03:00S 72°54' W 104°18'1212.1 250 / 91004.4 -1.5 -0.0
2019-Feb-10 02:00S 72°42' W 104°12'7 7.0 260 / 111004.6 -1.4 -0.5
2019-Feb-10 01:00S 72°36' W 104°00'1312.5 250 / 111004.6 -1.6 -0.6
2019-Feb-10 00:00S 72°24' W 103°48'6 6.3 240 / 131004.7 -1.6 -0.6
2019-Feb-09 23:00S 72°18' W 103°42'0 0.0 250 / 151004.9 -1.3 -0.9
2019-Feb-09 22:00S 72°18' W 103°42'0 0.0 260 / 151004.6 -1.2 -1.0
2019-Feb-09 21:00S 72°18' W 103°42'0 0.0 260 / 151004.4 -1.4 -0.9
2019-Feb-09 20:00S 72°18' W 103°42'0 0.0 270 / 151004.2 -1.7 -0.8
2019-Feb-09 19:00S 72°18' W 103°42'0 0.0 270 / 151003.8 -1.8 -0.8
2019-Feb-09 18:00S 72°18' W 103°42'6 6.0 260 / 131003.4 -1.8 -0.8
2019-Feb-09 17:00S 72°24' W 103°42'6 6.3 260 / 141003.0 -1.7 -0.8
2019-Feb-09 16:00S 72°18' W 103°48'6 6.3 260 / 131002.7 -1.8 -0.9
2019-Feb-09 15:00S 72°12' W 103°42'1212.0 270 / 111002.8 -1.9 -1.0
2019-Feb-09 14:00S 72°00' W 103°42'6 6.0 270 / 91002.8 -2.0 -1.1
2019-Feb-09 13:00S 71°54' W 103°42'6 6.3 260 / 81002.7 -2.3 -1.2
2019-Feb-09 12:00S 71°48' W 103°48'6 6.3 250 / 71002.4 -2.7 -1.4
2019-Feb-09 11:00S 71°42' W 103°54'6 6.0 220 / 51001.8 -3.1 -1.6
2019-Feb-09 10:00S 71°36' W 103°54'6 6.3 200 / 71001.3 -3.8 -1.7
2019-Feb-09 09:00S 71°30' W 103°48'7 7.1 170 / 91000.8 -4.0 -1.5
2019-Feb-09 08:00S 71°24' W 103°36'6 6.3 170 / 91000.1 -4.8 -1.6
2019-Feb-09 07:00S 71°18' W 103°30'6 6.3 150 / 9999.5 -4.7 -1.6
2019-Feb-09 06:00S 71°12' W 103°24'6 6.0 160 / 9998.8 -4.3 -1.7
2019-Feb-09 05:00S 71°06' W 103°24'6 6.0 160 / 7998.2 -4.3 -1.7
2019-Feb-09 04:00S 71°00' W 103°24'0 0.0 170 / 9997.7 -3.9 -1.8
2019-Feb-09 03:00S 71°00' W 103°24'0 0.0 170 / 8997.1 -3.5 -1.7
2019-Feb-09 02:00S 71°00' W 103°24'2 2.0 180 / 8996.2 -2.7 -1.8
2019-Feb-09 01:00S 71°00' W 103°18'6 6.3 180 / 8995.4 -1.7 -1.8
2019-Feb-09 00:00S 70°54' W 103°12'2 2.0 160 / 8994.6 -1.1 -1.7
2019-Feb-08 23:00S 70°54' W 103°06'4 3.9 150 / 8993.9 -1.2 -1.8
2019-Feb-08 22:00S 70°54' W 102°54'2 2.0 150 / 11992.9 -1.1 -1.7
2019-Feb-08 21:00S 70°54' W 102°48'7 7.2 150 / 11992.0 -1.5 -1.7
2019-Feb-08 20:00S 70°48' W 102°36'4 3.9 150 / 12991.3 -2.1 -1.7
2019-Feb-08 19:00S 70°48' W 102°24'6 6.3 160 / 15990.3 -2.6 -1.7
2019-Feb-08 18:00S 70°42' W 102°18'2 2.0 150 / 12989.3 -3.0 -1.7
2019-Feb-08 17:00S 70°42' W 102°12'6 6.3 150 / 12988.4 -3.6 -1.7
2019-Feb-08 16:00S 70°36' W 102°06'6 6.0 160 / 11987.5 -4.8 -1.7
2019-Feb-08 15:00S 70°30' W 102°06'6 6.3 160 / 9986.7 -5.1 -1.7
2019-Feb-08 14:00S 70°24' W 102°00'2 2.0 130 / 11985.9 -4.5 -1.6
2019-Feb-08 13:00S 70°24' W 101°54'0 0.0 130 / 10985.2 -4.6 -1.4
2019-Feb-08 12:00S 70°24' W 101°54'0 0.0 130 / 8984.5 -4.5 -1.4
2019-Feb-08 11:00S 70°24' W 101°54'0 0.0 110 / 7984.0 -3.9 -1.4
2019-Feb-08 10:00S 70°24' W 101°54'0 0.0 120 / 7983.3 -2.4 -1.5
2019-Feb-08 09:00S 70°24' W 101°54'6 6.3 130 / 7982.7 -2.0 -1.6
2019-Feb-08 08:00S 70°18' W 101°48'4 4.0 120 / 6982.2 -2.2 -1.6
2019-Feb-08 07:00S 70°18' W 101°36'7 7.2 110 / 7981.6 -2.6 -1.7
2019-Feb-08 06:00S 70°12' W 101°24'7 7.3 110 / 7981.0 -2.4 -1.6
2019-Feb-08 05:00S 70°06' W 101°12'7 7.3 100 / 7980.7 -2.2 -1.5
2019-Feb-08 04:00S 70°00' W 101°00'1514.6 080 / 8980.3 -1.2 -1.4
2019-Feb-08 03:00S 69°48' W 100°36'9 8.6 080 / 9980.0 -0.0 -0.8
2019-Feb-08 02:00S 69°42' W 100°18'9 8.7 080 / 9979.8 0.8 -0.5
2019-Feb-08 01:00S 69°36' W 100°00'1413.6 080 / 9979.8 0.9 -0.5
2019-Feb-08 00:00S 69°24' W 099°42'17 8.7 060 / 11979.8 0.8 -0.2
2019-Feb-07 22:00S 69°12' W 099°06'1413.6 060 / 12980.0 1.0 -0.0
2019-Feb-07 21:00S 69°00' W 098°48'9 8.8 050 / 11980.4 0.4 -0.0
2019-Feb-07 20:00S 68°54' W 098°30'1413.7 050 / 10980.7 0.9 -0.0
2019-Feb-07 19:00S 68°42' W 098°12'9 8.9 040 / 11980.7 0.3 0.2
2019-Feb-07 18:00S 68°36' W 097°54'9 8.9 050 / 12981.0 0.9 0.2
2019-Feb-07 17:00S 68°30' W 097°36'1413.7 060 / 12981.0 -0.0 0.2
2019-Feb-07 16:00S 68°18' W 097°18'9 9.0 060 / 9981.6 0.3 0.3
2019-Feb-07 15:00S 68°12' W 097°00'9 9.0 060 / 6982.2 -0.1 0.4
2019-Feb-07 14:00S 68°06' W 096°42'1312.8 060 / 4982.7 -0.7 0.6
2019-Feb-07 13:00S 67°54' W 096°30'9 9.1 060 / 2982.8 -1.1 0.3
2019-Feb-07 12:00S 67°48' W 096°12'1312.8 350 / 2982.9 -1.3 0.3
2019-Feb-07 11:00S 67°36' W 096°00'8 7.5 350 / 2983.0 -1.3 0.3
2019-Feb-07 10:00S 67°30' W 095°48'8 7.6 020 / 1983.0 -1.3 0.4
2019-Feb-07 09:00S 67°24' W 095°36'1413.9 180 / 2983.3 -0.9 1.0
2019-Feb-07 08:00S 67°12' W 095°18'8 7.6 210 / 1983.7 -0.7 0.7
2019-Feb-07 07:00S 67°06' W 095°06'1312.9 040 / 2983.8 -0.4 0.7
2019-Feb-07 06:00S 66°54' W 094°54'9 9.3 040 / 6983.6 -0.1 0.8
2019-Feb-07 05:00S 66°48' W 094°36'1312.9 060 / 8983.6 -0.1 0.8
2019-Feb-07 04:00S 66°36' W 094°24'8 7.7 060 / 5983.8 -0.0 0.9
2019-Feb-07 03:00S 66°30' W 094°12'1312.9 010 / 6984.1 -0.0 0.8
2019-Feb-07 02:00S 66°18' W 094°00'9 9.4 984.3 0.1 0.9
2019-Feb-07 01:00S 66°12' W 093°42'1312.9 350 / 8984.6 0.5 1.3
2019-Feb-07 00:00S 66°00' W 093°30'8 7.7 340 / 9984.9 0.8 1.4
2019-Feb-06 23:00S 65°54' W 093°18'1414.1 360 / 6985.3 0.8 1.5
2019-Feb-06 22:00S 65°42' W 093°00'6 6.5 340 / 5985.4 0.2 1.5
2019-Feb-06 21:00S 65°36' W 092°54'1313.0 320 / 7985.5 0.3 1.5
2019-Feb-06 20:00S 65°48' W 093°06'6 6.5 320 / 8985.4 -0.0 1.4
2019-Feb-06 19:00S 65°42' W 093°00'1414.1 310 / 6985.5 -0.5 1.4
2019-Feb-06 18:00S 65°30' W 092°42'8 7.8 290 / 7985.5 -0.6 1.5
2019-Feb-06 17:00S 65°24' W 092°30'   290 / 9985.5 -0.8 1.4

Dump ship's entire track history